Mount Pleasant, IA (52641)

2:39 PM CDT on July 07, 2015 (GMT -0500)
Becks Hybrids Facility | | Change Station
CLOSE
Current Station
Personal Weather Station
Location: Mount Pleasant, IA
Elevation: 728 ft
Nearby Weather Stations

Elev 728 ft 40.97 °N, 91.53 °W | Updated 4 minutes ago

Haze
Haze
72.2 °F
Feels Like 76 °F
N
8.0
Wind Variable Wind from NE
Gusts 16.0 mph

Today
High -- | Low -- °F
--% Chance of Precip.
Yesterday
High -- | Low -- °F
Precip. -- in
5:41 AM 8:40 PM
Waning Gibbous, 62% visible
Pressure 30.05 in
Visibility 5.0 miles
Clouds Scattered Clouds 4300 ft
Heat Index 76 °F
Dew Point 60 °F
Humidity 65%
Rainfall 0.00 in
Snow Depth Not available.
UV 9 out of 12
Pollen 1.50 out of 12
Air Quality Not available.
Flu Activity Not available.
METAR KMPZ 071915Z AUTO 01010KT 5SM HZ SCT043 25/09 A3005 RMK AO2 T02490093

More Conditions Fewer Conditions

Pressure 30.05 in
Visibility 5.0 miles
Clouds Scattered Clouds 4300 ft
Heat Index 76 °F
Dew Point 60 °F
Humidity 65%
Rainfall 0.00 in
Snow Depth Not available.
UV 9 out of 12
Pollen 1.50 out of 12
Air Quality Not available.
Flu Activity Not available.
METAR KMPZ 071915Z AUTO 01010KT 5SM HZ SCT043 25/09 A3005 RMK AO2 T02490093

More Conditions Fewer Conditions

10-Day Weather Forecast

×

Almanac

Astronomy

Jul. 07, 2015 Rise Set
Actual Time
Civil Twilight
Nautical Twilight
Astronomical Twilight
Moon
Length of Visible Light
Length of Day
Tomorrow will be .
, % of the Moon is Illuminated

Today's Extremes

State Highs State Lows

Community

WunderPhotos

Upload Photos

1,835,880 photos uploaded!

WunderBlogs® & News

Nearby

Air Quality

  Air Quality AQ Index Pollutant
Not available.

Snow Depth

Station Depth Elevation

Earthquake Activity

City Distance Mag. Time & Date
Minimum magnitude displayed is 2.5.

Coastal Water Temperatures

Place Temperature

Stations

Nearby Weather Stations

Station Location Temp. Windchill Dew Point Humidity Wind Precip. Elev Updated Type